Time;durP1;ratioP1;P1;durP2;ratioP2;P2;SDS_P1;SDS_P2;PMS_P1;PMS_P2;Temp;Humidity;BMP_temperature;BMP_pressure;BME280_temperature;BME280_humidity;BME280_pressure;Samples;Min_cycle;Max_cycle;Signal;HPM_P1;HPM_P2
2023/05/21 00:00:10;;;;;;;15.30;13.23;;;15.40;1.00;;;;;;5078953;28;20662;-80
2023/05/21 00:02:35;;;;;;;19.00;13.40;;;15.30;1.00;;;;;;5078997;28;20177;-80
2023/05/21 00:05:01;;;;;;;18.03;13.70;;;15.30;1.00;;;;;;5103089;28;20448;-78
2023/05/21 00:07:26;;;;;;;16.10;14.30;;;15.30;1.00;;;;;;5102710;28;20176;-80
2023/05/21 00:09:52;;;;;;;20.27;13.70;;;15.30;1.00;;;;;;5103049;28;20185;-80
2023/05/21 00:12:17;;;;;;;15.60;12.93;;;15.20;1.00;;;;;;5096241;28;20182;-80
2023/05/21 00:14:43;;;;;;;16.97;13.60;;;15.20;8.90;;;;;;5101358;28;20207;-80
2023/05/21 00:17:08;;;;;;;19.40;13.30;;;15.20;29.90;;;;;;5084121;28;20210;-78
2023/05/21 00:19:34;;;;;;;18.80;14.30;;;15.20;56.50;;;;;;5104091;28;20648;-81
2023/05/21 00:22:03;;;;;;;15.30;13.20;;;15.20;95.50;;;;;;5098409;28;20434;-80
2023/05/21 00:24:28;;;;;;;15.90;13.93;;;15.20;99.90;;;;;;5103017;28;20206;-80
2023/05/21 00:26:55;;;;;;;16.97;13.73;;;15.20;99.90;;;;;;5072384;28;20464;-80
2023/05/21 00:29:21;;;;;;;21.20;14.60;;;15.10;99.90;;;;;;5104094;28;20185;-81
2023/05/21 00:31:46;;;;;;;21.83;13.80;;;15.10;99.90;;;;;;5080913;28;20447;-78
2023/05/21 00:34:13;;;;;;;19.90;15.03;;;15.10;99.90;;;;;;5088073;28;21119;-80
2023/05/21 00:36:39;;;;;;;19.27;15.20;;;15.10;99.90;;;;;;5094728;28;20245;-80
2023/05/21 00:39:06;;;;;;;18.27;15.03;;;15.10;99.90;;;;;;5094007;28;20423;-79
2023/05/21 00:41:31;;;;;;;19.63;15.73;;;15.00;99.90;;;;;;5103200;28;20435;-80
2023/05/21 00:43:59;;;;;;;17.47;15.00;;;15.00;99.90;;;;;;5077166;28;20631;-79
2023/05/21 00:46:27;;;;;;;18.87;16.30;;;15.00;99.90;;;;;;5079805;28;20194;-80
2023/05/21 00:48:53;;;;;;;18.70;15.23;;;15.00;99.90;;;;;;5094942;28;20435;-80
2023/05/21 00:51:20;;;;;;;21.07;16.70;;;15.00;99.90;;;;;;5096513;28;20503;-80
2023/05/21 00:53:50;;;;;;;17.40;14.77;;;15.00;99.90;;;;;;5095588;28;20448;-81
2023/05/21 00:56:15;;;;;;;16.47;13.23;;;15.00;99.90;;;;;;5083138;28;20457;-80
2023/05/21 00:58:41;;;;;;;18.93;14.30;;;14.90;99.90;;;;;;5082171;28;20425;-79
2023/05/21 01:01:12;;;;;;;19.27;13.93;;;14.90;99.90;;;;;;5082272;28;20190;-79
2023/05/21 01:03:38;;;;;;;18.20;14.67;;;14.90;99.90;;;;;;5091077;28;20205;-79
2023/05/21 01:06:04;;;;;;;18.37;14.90;;;14.90;99.90;;;;;;5085389;28;20443;-78
2023/05/21 01:08:30;;;;;;;16.33;13.23;;;14.90;99.90;;;;;;5099773;28;20184;-80
2023/05/21 01:10:57;;;;;;;22.27;15.20;;;14.90;99.90;;;;;;5102025;28;21110;-81
2023/05/21 01:13:24;;;;;;;21.83;15.67;;;14.90;99.90;;;;;;5097692;28;20539;-81
2023/05/21 01:15:52;;;;;;;16.50;14.00;;;14.90;99.90;;;;;;5101751;28;20535;-80
2023/05/21 01:18:18;;;;;;;16.03;14.10;;;14.80;99.90;;;;;;5097674;28;20441;-80
2023/05/21 01:20:47;;;;;;;17.70;14.67;;;14.80;1.00;;;;;;5093712;28;20530;-80
2023/05/21 01:23:16;;;;;;;15.90;13.90;;;14.80;1.00;;;;;;5094864;28;20446;-79
2023/05/21 01:25:42;;;;;;;19.47;15.23;;;14.80;1.00;;;;;;5084054;28;20935;-79
2023/05/21 01:28:08;;;;;;;17.00;14.37;;;14.80;1.00;;;;;;5099487;28;20489;-80
2023/05/21 01:30:35;;;;;;;19.23;14.80;;;14.80;1.00;;;;;;5100048;28;20426;-79
2023/05/21 01:33:12;;;;;;;17.43;14.50;;;14.80;1.00;;;;;;5101025;28;20185;-81
2023/05/21 01:35:42;;;;;;;19.03;14.03;;;14.80;1.00;;;;;;5103466;28;20458;-78
2023/05/21 01:38:19;;;;;;;21.50;14.60;;;14.70;1.00;;;;;;5073251;28;20510;-80
2023/05/21 01:41:09;;;;;;;20.70;15.30;;;14.70;1.00;;;;;;5087551;28;20506;-80
2023/05/21 01:43:39;;;;;;;20.07;15.33;;;14.60;1.00;;;;;;5084909;28;20447;-80
2023/05/21 01:46:08;;;;;;;24.17;14.87;;;14.60;1.00;;;;;;5102249;28;20426;-80
2023/05/21 01:48:35;;;;;;;21.53;16.23;;;14.60;1.00;;;;;;5101019;28;20438;-80
2023/05/21 01:51:03;;;;;;;19.33;15.37;;;14.60;1.00;;;;;;5093049;28;20408;-79
2023/05/21 01:53:29;;;;;;;20.90;15.50;;;14.60;1.00;;;;;;5070613;28;20470;-80
2023/05/21 01:55:55;;;;;;;19.60;16.13;;;14.60;1.00;;;;;;5089267;28;20928;-78
2023/05/21 01:58:21;;;;;;;18.20;15.27;;;14.60;1.00;;;;;;5093363;28;20431;-80
2023/05/21 02:00:49;;;;;;;18.93;15.80;;;14.50;48.30;;;;;;5084209;28;20299;-80
2023/05/21 02:03:16;;;;;;;20.10;16.23;;;14.60;51.10;;;;;;5103096;28;20431;-82
2023/05/21 02:05:44;;;;;;;19.83;15.07;;;14.60;94.90;;;;;;5100249;28;20447;-81
2023/05/21 02:08:10;;;;;;;17.20;14.30;;;14.60;99.90;;;;;;5098069;28;20412;-78
2023/05/21 02:10:35;;;;;;;21.13;16.50;;;14.60;99.90;;;;;;5105564;28;20951;-81
2023/05/21 02:13:01;;;;;;;19.47;15.77;;;14.60;99.90;;;;;;5096938;28;20426;-81
2023/05/21 02:15:27;;;;;;;19.10;15.47;;;14.60;99.90;;;;;;5097191;28;20204;-79
2023/05/21 02:17:52;;;;;;;21.60;17.03;;;14.60;99.90;;;;;;5099807;28;20447;-80
2023/05/21 02:20:18;;;;;;;21.30;15.83;;;14.60;99.90;;;;;;5102338;28;20466;-81
2023/05/21 02:22:46;;;;;;;19.13;16.00;;;14.60;99.90;;;;;;5100737;28;20178;-81
2023/05/21 02:25:15;;;;;;;18.03;16.03;;;14.70;99.90;;;;;;5105486;28;20560;-80
2023/05/21 02:27:41;;;;;;;20.80;15.97;;;14.70;99.90;;;;;;5105814;28;20423;-80
2023/05/21 02:30:09;;;;;;;18.23;15.53;;;14.70;99.90;;;;;;5105342;28;20439;-80
2023/05/21 02:32:35;;;;;;;17.43;15.40;;;14.70;99.90;;;;;;5098948;28;20436;-80
2023/05/21 02:35:02;;;;;;;19.07;15.47;;;14.70;99.90;;;;;;5096854;28;20488;-79
2023/05/21 02:37:28;;;;;;;20.50;15.87;;;14.70;99.90;;;;;;5087068;28;20463;-80
2023/05/21 02:39:54;;;;;;;19.10;16.00;;;14.60;99.90;;;;;;5103902;28;20431;-78
2023/05/21 02:42:23;;;;;;;19.50;15.67;;;14.60;99.90;;;;;;5102056;28;20512;-77
2023/05/21 02:44:51;;;;;;;18.17;14.80;;;14.60;99.90;;;;;;5100918;28;20462;-80
2023/05/21 02:47:18;;;;;;;19.40;14.73;;;14.60;99.90;;;;;;5086451;28;20462;-79
2023/05/21 02:49:44;;;;;;;19.93;16.00;;;14.60;99.90;;;;;;5097165;28;20522;-79
2023/05/21 02:52:09;;;;;;;22.90;14.93;;;14.60;99.90;;;;;;5103606;28;20442;-77
2023/05/21 02:54:35;;;;;;;25.47;15.33;;;14.60;99.90;;;;;;5095596;28;20473;-79
2023/05/21 02:57:01;;;;;;;17.40;13.70;;;14.50;99.90;;;;;;5105678;28;20217;-80
2023/05/21 02:59:26;;;;;;;18.57;15.27;;;14.50;99.90;;;;;;5104931;28;20177;-79
2023/05/21 03:01:52;;;;;;;19.87;15.30;;;14.50;99.90;;;;;;5101413;28;20190;-79
2023/05/21 03:04:20;;;;;;;20.80;15.30;;;14.50;99.90;;;;;;5099962;28;20206;-79
2023/05/21 03:06:46;;;;;;;24.13;16.10;;;14.40;99.90;;;;;;5090978;28;20182;-79
2023/05/21 03:09:12;;;;;;;27.73;15.43;;;14.40;99.90;;;;;;5104662;28;20434;-79
2023/05/21 03:11:37;;;;;;;16.47;14.50;;;14.40;1.00;;;;;;5104532;28;20427;-78
2023/05/21 03:14:03;;;;;;;21.10;15.97;;;14.30;1.00;;;;;;5096965;28;20207;-78
2023/05/21 03:16:33;;;;;;;18.27;14.50;;;14.30;1.00;;;;;;5095162;28;20206;-78
2023/05/21 03:18:59;;;;;;;17.00;13.93;;;14.20;1.00;;;;;;5096506;28;20197;-78
2023/05/21 03:21:24;;;;;;;17.17;13.10;;;14.20;1.00;;;;;;5102060;28;20415;-78
2023/05/21 03:23:50;;;;;;;14.63;13.13;;;14.20;27.10;;;;;;5076062;28;20277;-81
2023/05/21 03:26:15;;;;;;;18.33;13.47;;;14.20;80.20;;;;;;5104352;28;20177;-80
2023/05/21 03:28:41;;;;;;;17.17;14.60;;;14.20;99.90;;;;;;5104280;28;20177;-80
2023/05/21 03:31:06;;;;;;;28.33;14.60;;;14.20;99.90;;;;;;5093244;28;20184;-79
2023/05/21 03:33:32;;;;;;;18.73;14.47;;;14.20;99.90;;;;;;5098603;28;20173;-80
2023/05/21 03:35:57;;;;;;;17.67;14.50;;;14.20;99.90;;;;;;5075263;28;20198;-79
2023/05/21 03:38:23;;;;;;;16.67;13.40;;;14.20;99.90;;;;;;5086043;28;20195;-81
2023/05/21 03:40:49;;;;;;;17.33;13.77;;;14.20;99.90;;;;;;5096679;28;20272;-80
2023/05/21 03:43:14;;;;;;;16.60;13.07;;;14.20;99.90;;;;;;5102657;28;20200;-80
2023/05/21 03:45:40;;;;;;;18.60;13.53;;;14.30;99.90;;;;;;5096345;28;20701;-81
2023/05/21 03:48:08;;;;;;;16.50;13.90;;;14.30;99.90;;;;;;5102326;28;20205;-81
2023/05/21 03:50:34;;;;;;;16.60;13.47;;;14.30;99.90;;;;;;5105415;28;20442;-81
2023/05/21 03:52:59;;;;;;;14.83;13.03;;;14.20;99.90;;;;;;5102412;28;20806;-78
2023/05/21 03:55:25;;;;;;;17.83;15.37;;;14.20;99.90;;;;;;5100610;28;20210;-80
2023/05/21 03:57:50;;;;;;;17.33;14.23;;;14.20;99.90;;;;;;5103216;28;20201;-80
2023/05/21 04:00:16;;;;;;;18.53;12.50;;;14.20;1.00;;;;;;5081835;28;20324;-81
2023/05/21 04:02:41;;;;;;;18.00;14.17;;;14.20;1.00;;;;;;5102355;28;20238;-78
2023/05/21 04:05:07;;;;;;;15.60;12.63;;;14.20;1.00;;;;;;5096137;28;20218;-79
2023/05/21 04:07:33;;;;;;;15.57;12.77;;;14.20;1.00;;;;;;5081888;28;20206;-79
2023/05/21 04:09:58;;;;;;;14.13;12.40;;;14.20;1.00;;;;;;5104442;28;20218;-81
2023/05/21 04:12:24;;;;;;;13.73;12.30;;;14.30;1.00;;;;;;5097035;28;20184;-77
2023/05/21 04:14:50;;;;;;;14.10;12.00;;;14.30;1.00;;;;;;5100544;28;20208;-81
2023/05/21 04:17:15;;;;;;;18.30;14.07;;;14.30;1.00;;;;;;5085075;28;20211;-81
2023/05/21 04:19:41;;;;;;;14.10;12.00;;;14.40;1.00;;;;;;5090130;28;20417;-79
2023/05/21 04:22:09;;;;;;;14.20;12.63;;;14.40;1.00;;;;;;5090593;28;20175;-79
2023/05/21 04:24:36;;;;;;;17.07;12.30;;;14.50;1.00;;;;;;5096602;28;20193;-80
2023/05/21 04:27:02;;;;;;;16.17;11.47;;;14.50;1.00;;;;;;5100366;28;20427;-79
2023/05/21 04:29:28;;;;;;;13.20;11.83;;;14.50;99.90;;;;;;5095436;28;20459;-81
2023/05/21 04:31:54;;;;;;;13.77;10.73;;;14.60;99.90;;;;;;5101369;28;20604;-78
2023/05/21 04:34:20;;;;;;;14.03;12.10;;;14.60;99.90;;;;;;5097913;28;20463;-80
2023/05/21 04:36:46;;;;;;;13.53;11.77;;;14.70;99.90;;;;;;5094799;28;20473;-80
2023/05/21 04:39:12;;;;;;;12.87;10.00;;;14.70;99.90;;;;;;5068098;28;20836;-81
2023/05/21 04:41:38;;;;;;;13.77;11.40;;;14.80;99.90;;;;;;5104554;28;20786;-79
2023/05/21 04:44:08;;;;;;;13.70;12.20;;;14.90;99.90;;;;;;5102253;28;20200;-79
2023/05/21 04:46:34;;;;;;;12.47;10.30;;;14.90;41.90;;;;;;5096385;28;20448;-81
2023/05/21 04:49:03;;;;;;;14.90;11.27;;;15.00;1.00;;;;;;5103482;28;20789;-81
2023/05/21 04:51:29;;;;;;;13.50;10.97;;;15.00;1.00;;;;;;5093641;28;20440;-78
2023/05/21 04:53:56;;;;;;;20.90;11.67;;;15.00;1.00;;;;;;5099705;28;20515;-80
2023/05/21 04:56:25;;;;;;;12.83;11.53;;;15.10;1.00;;;;;;5088908;28;20463;-78
2023/05/21 04:58:50;;;;;;;13.50;11.17;;;15.10;1.00;;;;;;5096806;28;20440;-79
2023/05/21 05:01:17;;;;;;;12.23;10.93;;;15.20;1.00;;;;;;5097157;28;20425;-80
2023/05/21 05:03:44;;;;;;;16.27;12.20;;;15.10;1.00;;;;;;5091932;28;20229;-78
2023/05/21 05:06:10;;;;;;;12.40;11.17;;;15.20;1.00;;;;;;5099982;28;20849;-80
2023/05/21 05:08:35;;;;;;;12.20;10.63;;;15.20;1.00;;;;;;5095602;28;20426;-80
2023/05/21 05:11:01;;;;;;;11.00;9.63;;;15.30;1.00;;;;;;5096665;28;20191;-81
2023/05/21 05:13:27;;;;;;;13.30;11.33;;;15.30;1.00;;;;;;5098609;28;20199;-77
2023/05/21 05:15:52;;;;;;;12.83;9.87;;;15.40;99.90;;;;;;5098226;28;20468;-79
2023/05/21 05:18:18;;;;;;;12.20;10.87;;;15.50;99.90;;;;;;5100252;28;20224;-81
2023/05/21 05:20:45;;;;;;;10.97;9.87;;;15.50;99.90;;;;;;5095534;28;20199;-80
2023/05/21 05:23:11;;;;;;;11.07;9.90;;;15.60;99.90;;;;;;5098780;28;20553;-79
2023/05/21 05:25:36;;;;;;;13.37;10.73;;;15.60;99.90;;;;;;5102260;28;20437;-80
2023/05/21 05:28:02;;;;;;;12.13;9.90;;;15.70;99.90;;;;;;5102739;28;20250;-80
2023/05/21 05:30:27;;;;;;;11.70;10.30;;;15.80;32.40;;;;;;5098782;28;20242;-80
2023/05/21 05:32:53;;;;;;;11.00;9.80;;;15.80;1.00;;;;;;5084578;28;20255;-81
2023/05/21 05:35:18;;;;;;;13.60;9.87;;;15.90;1.00;;;;;;5103559;28;20741;-79
2023/05/21 05:37:44;;;;;;;13.40;10.60;;;15.90;1.00;;;;;;5087247;28;20188;-79
2023/05/21 05:40:10;;;;;;;12.50;10.50;;;15.90;1.00;;;;;;5103871;28;20246;-80
2023/05/21 05:42:35;;;;;;;11.97;10.50;;;16.00;1.00;;;;;;5104446;28;20234;-79
2023/05/21 05:45:01;;;;;;;12.03;10.30;;;16.10;1.00;;;;;;5104910;28;20272;-80
2023/05/21 05:47:26;;;;;;;12.13;10.17;;;16.20;1.00;;;;;;5103625;28;20328;-80
2023/05/21 05:49:52;;;;;;;14.40;10.57;;;16.40;99.90;;;;;;5100491;28;20188;-81
2023/05/21 05:52:17;;;;;;;14.53;11.13;;;16.50;99.90;;;;;;5096150;28;20210;-79
2023/05/21 05:54:43;;;;;;;12.23;10.43;;;16.60;99.90;;;;;;5083710;28;20208;-79
2023/05/21 05:57:08;;;;;;;14.83;10.80;;;16.80;99.90;;;;;;5103485;28;20213;-80
2023/05/21 05:59:34;;;;;;;13.50;11.47;;;16.90;99.90;;;;;;5106295;28;20208;-78
2023/05/21 06:02:00;;;;;;;13.60;12.00;;;17.00;99.90;;;;;;5101022;28;20655;-79
2023/05/21 06:04:28;;;;;;;13.83;10.10;;;17.20;99.20;;;;;;5085366;28;20204;-80
2023/05/21 06:06:57;;;;;;;14.30;10.63;;;17.40;19.30;;;;;;5102882;28;20207;-80
2023/05/21 06:09:23;;;;;;;14.40;11.00;;;17.60;1.00;;;;;;5103722;28;20418;-80
2023/05/21 06:11:49;;;;;;;12.77;10.17;;;17.80;1.00;;;;;;5104293;28;20407;-81
2023/05/21 06:14:14;;;;;;;12.40;10.30;;;18.10;1.00;;;;;;5097239;28;20472;-80
2023/05/21 06:16:40;;;;;;;15.07;11.20;;;18.50;1.00;;;;;;5085989;28;20204;-80
2023/05/21 06:19:05;;;;;;;12.80;11.50;;;19.00;1.00;;;;;;5102865;28;20662;-80
2023/05/21 06:21:31;;;;;;;11.53;9.93;;;19.40;99.90;;;;;;5096687;28;20187;-81
2023/05/21 06:23:57;;;;;;;11.40;10.30;;;19.70;99.90;;;;;;5104794;28;20203;-80
2023/05/21 06:26:22;;;;;;;10.67;9.40;;;20.00;99.90;;;;;;5102611;28;20188;-81
2023/05/21 06:28:48;;;;;;;11.60;9.90;;;20.30;99.90;;;;;;5084825;28;20248;-81
2023/05/21 06:31:14;;;;;;;14.43;10.60;;;20.60;99.90;;;;;;5089562;28;20193;-80
2023/05/21 06:33:40;;;;;;;11.47;10.30;;;21.10;99.90;;;;;;5097925;28;20459;-79
2023/05/21 06:36:06;;;;;;;12.30;10.37;;;21.50;99.90;;;;;;5099771;28;20466;-79
2023/05/21 06:38:32;;;;;;;12.00;10.50;;;22.20;99.90;;;;;;5097823;28;20189;-80
2023/05/21 06:40:58;;;;;;;11.23;10.07;;;23.60;99.90;;;;;;5101489;28;20447;-82
2023/05/21 06:43:23;;;;;;;10.70;9.47;;;25.40;99.90;;;;;;5101949;28;20177;-80
2023/05/21 06:45:49;;;;;;;10.70;9.60;;;27.80;99.90;;;;;;5104830;28;20688;-81
2023/05/21 06:48:16;;;;;;;9.20;8.20;;;30.20;99.90;;;;;;5094496;28;20799;-80
2023/05/21 06:50:41;;;;;;;8.37;7.40;;;32.60;99.90;;;;;;5102972;28;20176;-80
2023/05/21 06:53:07;;;;;;;9.10;8.20;;;34.90;99.90;;;;;;5102442;28;20490;-81
2023/05/21 06:55:33;;;;;;;7.87;7.10;;;37.00;99.90;;;;;;5104459;28;20223;-81
2023/05/21 06:57:58;;;;;;;7.80;7.10;;;38.90;99.90;;;;;;5104271;28;20208;-80
2023/05/21 07:00:24;;;;;;;8.47;7.67;;;40.10;99.90;;;;;;5099812;28;20185;-80
2023/05/21 07:02:50;;;;;;;8.27;7.57;;;40.90;99.90;;;;;;5104314;28;20184;-81
2023/05/21 07:05:15;;;;;;;7.83;7.13;;;41.00;99.90;;;;;;5096223;28;20551;-80
2023/05/21 07:07:41;;;;;;;7.80;7.10;;;40.50;99.90;;;;;;5101702;28;20663;-80
2023/05/21 07:10:07;;;;;;;8.10;7.50;;;39.70;99.90;;;;;;5100691;28;20243;-81
2023/05/21 07:12:32;;;;;;;9.57;8.77;;;38.70;99.90;;;;;;5101575;28;20179;-80
2023/05/21 07:14:58;;;;;;;12.60;8.10;;;37.50;99.90;;;;;;5102105;28;20430;-80
2023/05/21 07:17:23;;;;;;;9.30;8.47;;;36.60;99.90;;;;;;5102736;28;20212;-78
2023/05/21 07:19:49;;;;;;;9.03;8.23;;;36.10;99.90;;;;;;5099359;28;20184;-80
2023/05/21 07:22:14;;;;;;;8.93;7.83;;;35.50;99.90;;;;;;5081518;28;20180;-80
2023/05/21 07:24:40;;;;;;;10.10;9.03;;;34.80;99.90;;;;;;5100288;28;20291;-82
2023/05/21 07:27:05;;;;;;;8.77;7.97;;;33.90;99.90;;;;;;5080396;28;20632;-80
2023/05/21 07:29:33;;;;;;;9.70;8.80;;;33.20;99.90;;;;;;5090684;28;20212;-80
2023/05/21 07:31:58;;;;;;;9.40;8.47;;;32.70;99.00;;;;;;5091666;28;20196;-80
2023/05/21 07:34:25;;;;;;;9.60;8.70;;;32.10;98.50;;;;;;5098282;28;20461;-80
2023/05/21 07:36:50;;;;;;;10.40;9.50;;;31.70;97.10;;;;;;5093837;28;20211;-81
2023/05/21 07:39:16;;;;;;;9.63;8.57;;;31.50;97.40;;;;;;5104779;28;20422;-82
2023/05/21 07:41:42;;;;;;;10.53;9.30;;;31.20;96.10;;;;;;5094106;28;20972;-81
2023/05/21 07:44:07;;;;;;;11.07;9.97;;;31.00;95.80;;;;;;5102900;28;20454;-83
2023/05/21 07:46:33;;;;;;;11.50;9.20;;;31.10;96.90;;;;;;5087719;28;20242;-82
2023/05/21 07:48:59;;;;;;;11.27;9.83;;;31.10;99.90;;;;;;5104596;28;20289;-83
2023/05/21 07:51:25;;;;;;;10.47;9.43;;;31.00;96.60;;;;;;5097787;28;20208;-82
2023/05/21 07:53:51;;;;;;;10.67;9.23;;;31.10;97.00;;;;;;5101798;28;20675;-83
2023/05/21 07:56:20;;;;;;;11.97;10.23;;;31.30;97.60;;;;;;5103160;28;20481;-83
2023/05/21 07:58:46;;;;;;;11.30;9.67;;;31.70;98.30;;;;;;5101909;28;20176;-83
2023/05/21 08:01:11;;;;;;;12.23;9.50;;;32.50;99.90;;;;;;5103127;28;20533;-83
2023/05/21 08:03:37;;;;;;;9.67;8.67;;;33.50;99.90;;;;;;5084192;28;20440;-83
2023/05/21 08:06:03;;;;;;;9.90;9.10;;;34.30;99.90;;;;;;5086921;28;20215;-83
2023/05/21 08:08:29;;;;;;;9.37;8.20;;;34.50;99.90;;;;;;5105366;28;20187;-83
2023/05/21 08:10:55;;;;;;;10.17;9.17;;;34.60;99.90;;;;;;5081735;28;20180;-83
2023/05/21 08:13:20;;;;;;;9.83;9.00;;;34.70;99.90;;;;;;5085693;28;20678;-82
2023/05/21 08:15:47;;;;;;;11.17;9.80;;;34.90;99.90;;;;;;5099357;28;20514;-83
2023/05/21 08:18:12;;;;;;;9.73;8.80;;;34.40;98.90;;;;;;5104586;28;20466;-83
2023/05/21 08:20:38;;;;;;;11.20;10.20;;;34.20;97.60;;;;;;5101503;28;20445;-83
2023/05/21 08:23:04;;;;;;;10.80;9.80;;;33.90;97.00;;;;;;5106440;28;20723;-82
2023/05/21 08:25:29;;;;;;;9.10;8.30;;;33.80;96.20;;;;;;5088609;28;20207;-81
2023/05/21 08:27:55;;;;;;;12.50;9.10;;;33.60;95.40;;;;;;5104170;28;20191;-81
2023/05/21 08:30:21;;;;;;;13.93;10.37;;;33.30;94.50;;;;;;5091944;28;20181;-81
2023/05/21 08:32:47;;;;;;;11.07;9.70;;;33.00;93.70;;;;;;5102893;28;20184;-82
2023/05/21 08:35:13;;;;;;;11.43;10.33;;;32.70;92.80;;;;;;5093600;28;20272;-81
2023/05/21 08:37:38;;;;;;;11.00;9.83;;;32.40;92.60;;;;;;5101114;28;20504;-81
2023/05/21 08:40:05;;;;;;;12.13;9.70;;;32.10;92.90;;;;;;5105643;28;20195;-83
2023/05/21 08:42:46;;;;;;;12.57;11.00;;;31.80;91.30;;;;;;5089943;28;20203;-81
2023/05/21 08:45:16;;;;;;;12.43;11.13;;;31.50;90.90;;;;;;5093609;28;20544;-81
2023/05/21 08:47:51;;;;;;;12.40;11.10;;;31.10;90.50;;;;;;5097607;28;20455;-80
2023/05/21 08:50:19;;;;;;;11.80;10.60;;;30.80;90.30;;;;;;5105124;28;20463;-80
2023/05/21 08:52:45;;;;;;;11.23;10.13;;;30.50;90.50;;;;;;5091175;28;20435;-80
2023/05/21 08:55:11;;;;;;;13.23;11.93;;;30.40;90.00;;;;;;5094889;28;20968;-80
2023/05/21 08:57:41;;;;;;;11.73;10.47;;;30.40;90.70;;;;;;5101772;28;20200;-80
2023/05/21 09:00:07;;;;;;;17.13;10.87;;;31.10;93.30;;;;;;5100169;28;20438;-80
2023/05/21 09:02:33;;;;;;;13.60;11.20;;;31.90;95.40;;;;;;5094990;28;20441;-82
2023/05/21 09:05:02;;;;;;;12.70;11.40;;;32.60;96.70;;;;;;5077100;28;20448;-82
2023/05/21 09:07:30;;;;;;;11.53;10.47;;;33.60;99.00;;;;;;5098206;28;20465;-82
2023/05/21 09:10:07;;;;;;;10.53;9.43;;;34.80;99.90;;;;;;5100531;28;22659;-79
2023/05/21 09:12:33;;;;;;;10.20;9.30;;;36.00;99.90;;;;;;5104383;28;20472;-81
2023/05/21 09:15:00;;;;;;;12.53;10.60;;;36.70;99.90;;;;;;5103899;28;20462;-81
2023/05/21 09:17:25;;;;;;;12.57;9.87;;;37.00;99.90;;;;;;5091487;28;20473;-80
2023/05/21 09:20:12;;;;;;;10.60;9.70;;;37.20;99.80;;;;;;5094715;28;20437;-82
2023/05/21 09:22:41;;;;;;;11.67;10.47;;;37.20;98.30;;;;;;5106357;28;20176;-80
2023/05/21 09:25:11;;;;;;;10.87;9.87;;;36.90;96.90;;;;;;5101302;28;20445;-80
2023/05/21 09:27:38;;;;;;;10.47;9.57;;;36.90;95.90;;;;;;5109999;28;20445;-81
2023/05/21 09:30:08;;;;;;;11.57;10.40;;;37.10;95.50;;;;;;5105082;28;20439;-82
2023/05/21 09:32:34;;;;;;;11.13;10.13;;;37.50;95.00;;;;;;5105273;28;20486;-81
2023/05/21 09:35:10;;;;;;;10.40;9.30;;;38.10;95.90;;;;;;5084052;28;20490;-81
2023/05/21 09:37:43;;;;;;;10.97;9.97;;;39.00;96.20;;;;;;5103886;28;20207;-82
2023/05/21 09:40:10;;;;;;;10.73;9.50;;;39.80;96.10;;;;;;5101364;28;20482;-83
2023/05/21 09:42:41;;;;;;;10.37;9.37;;;40.40;95.20;;;;;;5107480;28;20510;-83
2023/05/21 09:45:08;;;;;;;10.77;9.73;;;41.10;94.80;;;;;;5095153;28;20454;-81
2023/05/21 09:47:40;;;;;;;10.37;9.47;;;41.30;93.70;;;;;;5090242;28;20423;-82
2023/05/21 09:50:07;;;;;;;11.43;9.87;;;41.30;91.90;;;;;;5089557;28;20478;-82
2023/05/21 09:52:35;;;;;;;10.60;9.60;;;41.00;91.30;;;;;;5099366;28;20533;-82
2023/05/21 09:55:03;;;;;;;12.27;11.07;;;40.60;86.60;;;;;;5108483;28;20450;-81
2023/05/21 09:57:28;;;;;;;11.83;10.73;;;40.40;83.70;;;;;;5109316;28;20421;-83
2023/05/21 09:59:54;;;;;;;12.70;11.50;;;40.80;84.10;;;;;;5106181;28;20873;-82
2023/05/21 10:02:22;;;;;;;13.03;11.60;;;40.20;79.40;;;;;;5082586;28;20544;-83
2023/05/21 10:04:53;;;;;;;9.63;8.73;;;39.60;76.40;;;;;;5092083;28;20513;-83
2023/05/21 10:07:29;;;;;;;10.93;10.10;;;39.20;75.00;;;;;;5092646;28;20485;-82
2023/05/21 10:09:56;;;;;;;12.43;11.23;;;38.90;72.60;;;;;;5107524;28;20438;-82
2023/05/21 10:12:26;;;;;;;13.17;10.60;;;38.50;71.10;;;;;;5090450;28;20572;-82
2023/05/21 10:14:59;;;;;;;13.70;11.30;;;38.50;71.10;;;;;;5091433;28;20477;-82
2023/05/21 10:17:26;;;;;;;13.50;12.33;;;37.60;68.80;;;;;;5108230;28;20414;-81
2023/05/21 10:19:55;;;;;;;12.33;11.13;;;36.90;66.60;;;;;;5080676;28;20522;-83
2023/05/21 10:22:23;;;;;;;13.07;11.77;;;36.20;64.60;;;;;;5077148;28;20427;-82
2023/05/21 10:24:50;;;;;;;12.70;11.50;;;35.60;62.70;;;;;;5109878;28;20485;-83
2023/05/21 10:27:17;;;;;;;13.87;12.30;;;35.80;66.20;;;;;;5092633;28;20505;-82
2023/05/21 10:29:44;;;;;;;12.30;11.10;;;36.80;72.00;;;;;;5087607;28;20478;-83
2023/05/21 10:32:13;;;;;;;12.57;11.47;;;37.70;76.10;;;;;;5105433;28;20437;-83
2023/05/21 10:34:40;;;;;;;13.57;12.17;;;38.10;77.20;;;;;;5080453;28;20466;-82
2023/05/21 10:37:08;;;;;;;12.77;11.57;;;38.50;77.60;;;;;;5089145;28;20446;-83
2023/05/21 10:39:34;;;;;;;14.27;13.07;;;38.00;75.20;;;;;;5073814;28;20430;-83
2023/05/21 10:42:26;;;;;;;13.13;11.83;;;37.60;72.30;;;;;;5099943;28;20797;-83
2023/05/21 10:45:05;;;;;;;13.77;12.57;;;37.20;71.90;;;;;;5091899;28;20435;-84
2023/05/21 10:47:55;;;;;;;12.73;11.60;;;37.30;71.80;;;;;;5080610;28;20487;-82
2023/05/21 10:50:36;;;;;;;14.13;12.90;;;37.40;73.60;;;;;;5090686;28;20419;-83
2023/05/21 10:53:33;;;;;;;13.30;12.20;;;37.30;73.20;;;;;;5094634;28;20420;-82
2023/05/21 10:56:12;;;;;;;12.57;11.40;;;37.20;73.00;;;;;;5080642;28;20434;-83
2023/05/21 10:58:56;;;;;;;13.30;12.10;;;37.40;75.70;;;;;;5080457;28;20446;-81
2023/05/21 11:05:41;;;;;;;13.40;12.10;;;38.60;78.80;;;;;;5096616;28;20442;-83
2023/05/21 11:08:57;;;;;;;15.37;12.87;;;39.50;80.90;;;;;;5108931;28;20418;-82
2023/05/21 11:11:59;;;;;;;;;;;;;;;;;;;;;
2023/05/21 11:15:34;;;;;;;13.33;12.03;;;40.50;80.60;;;;;;5091563;28;20473;-83
2023/05/21 11:18:45;;;;;;;;;;;;;;;;;;;;;
2023/05/21 11:26:01;;;;;;;;;;;;;;;;;;;;;
2023/05/21 11:46:15;;;;;;;15.00;13.70;;;38.80;68.60;;;;;;5020639;28;20463;-83
2023/05/21 11:48:46;;;;;;;15.50;14.00;;;38.90;69.20;;;;;;5086245;28;20468;-83
2023/05/21 11:51:22;;;;;;;15.23;13.93;;;38.90;69.30;;;;;;5080218;28;20430;-81
2023/05/21 11:54:09;;;;;;;14.63;13.13;;;39.00;69.40;;;;;;5070539;28;20458;-79
2023/05/21 11:56:48;;;;;;;15.10;13.70;;;38.90;69.40;;;;;;5087856;28;20417;-84
2023/05/21 11:59:16;;;;;;;15.40;14.00;;;39.10;71.10;;;;;;5074260;28;20427;-83
2023/05/21 12:02:00;;;;;;;14.60;13.10;;;39.40;73.40;;;;;;5075853;28;20464;-82
2023/05/21 12:05:09;;;;;;;;;;;;;;;;;;;;;
2023/05/21 12:07:54;;;;;;;;;;;;;;;;;;;;;
2023/05/21 12:10:41;;;;;;;13.33;12.23;;;39.80;90.20;;;;;;5097547;28;20522;-83
2023/05/21 12:13:12;;;;;;;14.93;13.63;;;39.90;72.10;;;;;;5083181;28;20452;-83
2023/05/21 12:18:36;;;;;;;14.43;13.10;;;39.40;70.00;;;;;;5103906;28;20414;-82
2023/05/21 12:21:04;;;;;;;15.10;13.57;;;39.30;68.10;;;;;;5100307;28;20409;-84
2023/05/21 12:23:32;;;;;;;16.57;15.07;;;39.10;67.30;;;;;;5087314;28;20442;-80
2023/05/21 12:25:58;;;;;;;15.20;13.70;;;38.80;67.10;;;;;;5101025;28;20515;-82
2023/05/21 12:28:24;;;;;;;15.67;14.20;;;38.50;65.70;;;;;;5105216;28;20422;-81
2023/05/21 12:30:50;;;;;;;14.73;13.53;;;38.60;66.50;;;;;;5097985;28;20415;-84
2023/05/21 12:33:16;;;;;;;15.20;13.90;;;38.70;67.30;;;;;;5087563;28;20171;-83
2023/05/21 12:35:48;;;;;;;15.10;13.50;;;38.70;67.10;;;;;;5105539;28;20521;-83
2023/05/21 12:38:14;;;;;;;18.07;16.37;;;38.40;67.20;;;;;;5105127;28;20426;-83
2023/05/21 12:40:41;;;;;;;15.83;14.43;;;38.20;66.10;;;;;;5102930;28;20427;-84
2023/05/21 12:43:07;;;;;;;15.30;13.80;;;38.10;65.90;;;;;;5090267;28;20209;-82
2023/05/21 12:45:33;;;;;;;15.33;14.13;;;38.00;66.70;;;;;;5085833;28;20494;-80
2023/05/21 12:48:02;;;;;;;14.90;13.60;;;37.90;65.90;;;;;;5105218;28;20180;-82
2023/05/21 12:50:27;;;;;;;17.30;15.83;;;37.70;65.70;;;;;;5103765;28;20180;-82
2023/05/21 12:52:54;;;;;;;13.80;12.50;;;37.70;68.00;;;;;;5084679;28;20445;-84
2023/05/21 12:55:22;;;;;;;14.10;12.80;;;37.70;66.10;;;;;;5100457;28;20222;-84
2023/05/21 12:57:47;;;;;;;15.17;13.87;;;37.70;67.20;;;;;;5087492;28;20414;-83
2023/05/21 13:00:13;;;;;;;13.87;12.60;;;37.60;66.80;;;;;;5094691;28;20431;-82
2023/05/21 13:02:40;;;;;;;14.93;13.63;;;37.50;67.40;;;;;;5104718;28;20176;-81
2023/05/21 13:05:14;;;;;;;14.97;13.63;;;37.30;66.00;;;;;;5102834;28;20200;-84
2023/05/21 13:07:39;;;;;;;14.40;13.00;;;37.00;66.00;;;;;;5104006;28;20510;-82
2023/05/21 13:10:06;;;;;;;15.50;13.87;;;37.00;67.30;;;;;;5105605;28;20476;-81
2023/05/21 13:12:32;;;;;;;16.27;14.57;;;37.00;67.70;;;;;;5106321;28;20176;-83